createdAt,value
2019-04-10T00:01:20.077Z,42.37
2019-04-10T00:03:50.750Z,53.10
2019-04-10T00:06:21.715Z,48.43
2019-04-10T00:08:52.865Z,46.60
2019-04-10T00:11:24.826Z,47.90
2019-04-10T00:13:55.759Z,50.77
2019-04-10T00:16:26.495Z,49.43
2019-04-10T00:18:58.156Z,49.13
2019-04-10T00:21:29.283Z,44.20
2019-04-10T00:24:00.137Z,50.67
2019-04-10T00:26:31.780Z,48.33
2019-04-10T00:29:03.602Z,52.37
2019-04-10T00:31:34.454Z,47.97
2019-04-10T00:34:05.421Z,49.90
2019-04-10T00:36:37.161Z,52.87
2019-04-10T00:39:09.093Z,48.90
2019-04-10T00:41:40.662Z,48.30
2019-04-10T00:44:11.956Z,49.77
2019-04-10T00:46:42.742Z,52.90
2019-04-10T00:49:13.537Z,50.50
2019-04-10T00:51:45.817Z,50.23
2019-04-10T00:54:23.620Z,51.27
2019-04-10T00:56:54.957Z,51.30
2019-04-10T00:59:26.209Z,55.57
2019-04-10T01:01:57.004Z,52.27
2019-04-10T01:04:28.685Z,51.13
2019-04-10T01:07:00.919Z,54.43
2019-04-10T01:09:31.693Z,57.97
2019-04-10T01:12:03.543Z,59.00
2019-04-10T01:14:36.104Z,58.53
2019-04-10T01:17:06.642Z,61.33
2019-04-10T01:19:37.382Z,57.83
2019-04-10T01:22:08.610Z,64.30
2019-04-10T01:24:39.450Z,60.87
2019-04-10T01:27:10.166Z,69.83
2019-04-10T01:29:43.917Z,67.97
2019-04-10T01:32:17.225Z,62.87
2019-04-10T01:34:49.629Z,63.40
2019-04-10T01:37:21.129Z,61.67
2019-04-10T01:39:53.339Z,60.90
2019-04-10T01:42:24.850Z,59.80
2019-04-10T01:45:06.038Z,66.90
2019-04-10T01:47:37.283Z,62.97
2019-04-10T01:50:08.333Z,75.53
2019-04-10T01:52:39.390Z,74.37
2019-04-10T01:55:20.147Z,82.07
2019-04-10T01:57:42.715Z,95.50
2019-04-10T02:00:17.930Z,86.30
2019-04-10T02:02:51.865Z,92.53
2019-04-10T02:05:23.182Z,97.23
2019-04-10T02:08:07.920Z,95.80
2019-04-10T02:10:36.416Z,99.93
2019-04-10T02:13:33.842Z,98.77
2019-04-10T02:16:25.522Z,104.03
2019-04-10T02:19:01.637Z,99.97
2019-04-10T02:21:49.760Z,98.33
2019-04-10T02:24:23.758Z,97.67
2019-04-10T02:27:24.535Z,98.63
2019-04-10T02:30:46.000Z,103.53
2019-04-10T02:33:41.234Z,92.30
2019-04-10T02:36:19.603Z,92.73
2019-04-10T02:39:15.129Z,98.30
2019-04-10T02:41:52.256Z,95.97
2019-04-10T02:45:10.087Z,98.93
2019-04-10T02:47:47.264Z,96.97
2019-04-10T02:50:20.769Z,107.83
2019-04-10T02:52:52.436Z,108.47
2019-04-10T02:55:31.273Z,108.77
2019-04-10T02:58:07.958Z,112.27
2019-04-10T03:00:44.133Z,106.47
2019-04-10T03:03:16.042Z,103.30
2019-04-10T03:05:49.063Z,101.47
2019-04-10T03:08:39.601Z,112.33
2019-04-10T03:10:59.145Z,116.70
2019-04-10T03:13:31.122Z,108.73
2019-04-10T03:16:03.199Z,111.73
2019-04-10T03:18:41.077Z,113.47
2019-04-10T03:21:15.368Z,109.20
2019-04-10T03:23:49.592Z,108.37
2019-04-10T03:26:23.645Z,105.07
2019-04-10T03:28:57.750Z,99.63
2019-04-10T03:31:30.062Z,109.50
2019-04-10T03:34:16.824Z,102.97
2019-04-10T03:36:48.951Z,104.53
2019-04-10T03:39:40.968Z,106.30
2019-04-10T03:42:08.588Z,108.83
2019-04-10T03:44:45.675Z,111.50
2019-04-10T03:47:17.502Z,106.73
2019-04-10T04:53:23.691Z,109.07
2019-04-10T04:55:55.463Z,99.00
2019-04-10T04:58:26.339Z,100.37
2019-04-10T05:00:57.085Z,107.37
2019-04-10T05:03:28.983Z,101.63
2019-04-10T05:06:01.457Z,100.80
2019-04-10T05:08:32.380Z,103.33
2019-04-10T05:11:04.244Z,100.47
2019-04-10T05:13:34.939Z,96.80
2019-04-10T05:16:06.126Z,99.43
2019-04-10T05:18:37.271Z,104.77
2019-04-10T05:21:08.528Z,102.87
2019-04-10T05:23:39.208Z,94.93
2019-04-10T05:26:10.224Z,96.97
2019-04-10T05:28:40.860Z,103.37
2019-04-10T05:31:11.421Z,104.03
2019-04-10T05:33:42.036Z,107.70
2019-04-10T05:36:13.248Z,104.93
2019-04-10T05:38:44.018Z,118.80
2019-04-10T05:41:15.465Z,103.37
2019-04-10T05:43:46.777Z,102.07
2019-04-10T05:46:18.526Z,102.27
2019-04-10T05:48:49.586Z,96.93
2019-04-10T05:51:21.365Z,100.30
2019-04-10T05:53:53.656Z,97.07
2019-04-10T05:56:24.177Z,95.50
2019-04-10T05:58:54.701Z,97.77
2019-04-10T06:01:33.301Z,107.63
2019-04-10T06:03:57.741Z,101.03
2019-04-10T06:06:28.521Z,95.43
2019-04-10T06:08:59.073Z,102.20
2019-04-10T06:11:30.737Z,99.77
2019-04-10T06:14:01.634Z,100.43
2019-04-10T06:16:32.338Z,97.27
2019-04-10T06:19:03.924Z,98.57
2019-04-10T06:21:35.709Z,95.60
2019-04-10T06:24:06.373Z,95.03
2019-04-10T06:26:37.530Z,96.10
2019-04-10T06:29:08.642Z,92.90
2019-04-10T06:31:39.281Z,98.83
2019-04-10T06:34:11.160Z,94.60
2019-04-10T06:36:42.112Z,98.20
2019-04-10T06:39:12.975Z,92.53
2019-04-10T06:41:43.528Z,96.63
2019-04-10T06:44:14.115Z,98.17
2019-04-10T06:46:44.673Z,88.93
2019-04-10T06:49:16.371Z,95.90
2019-04-10T06:51:47.010Z,84.53
2019-04-10T06:54:17.641Z,83.30
2019-04-10T06:56:48.763Z,89.10
2019-04-10T06:59:19.484Z,83.50
2019-04-10T07:01:54.541Z,83.73
2019-04-10T07:04:25.155Z,84.67
2019-04-10T07:07:01.813Z,80.13
2019-04-10T07:09:27.229Z,89.37
2019-04-10T07:12:01.363Z,85.17
2019-04-10T07:14:33.926Z,82.90
2019-04-10T07:17:06.722Z,88.47
2019-04-10T07:19:36.486Z,88.77
2019-04-10T07:22:11.140Z,84.87
2019-04-10T07:24:42.393Z,77.67
2019-04-10T07:27:11.936Z,84.67
2019-04-10T07:29:42.697Z,77.97
2019-04-10T07:32:13.418Z,81.80
2019-04-10T07:34:44.533Z,78.53
2019-04-10T07:37:20.239Z,86.20
2019-04-10T07:39:47.348Z,85.17
2019-04-10T07:42:26.709Z,82.27
2019-04-10T07:44:50.124Z,88.53
2019-04-10T07:47:22.062Z,81.50
2019-04-10T07:49:52.754Z,79.47
2019-04-10T07:52:24.075Z,74.90
2019-04-10T07:54:54.909Z,79.23
2019-04-10T07:57:26.623Z,79.17
2019-04-10T07:59:57.260Z,81.87
2019-04-10T08:02:27.833Z,81.33
2019-04-10T08:04:58.503Z,83.07
2019-04-10T08:07:32.576Z,76.40
2019-04-10T08:10:01.462Z,75.00
2019-04-10T08:12:39.503Z,71.80
2019-04-10T08:15:04.920Z,74.30
2019-04-10T08:17:36.891Z,74.27
2019-04-10T08:20:08.080Z,77.93
2019-04-10T08:22:39.280Z,75.47
2019-04-10T08:25:10.814Z,71.10
2019-04-10T08:27:41.787Z,75.90
2019-04-10T08:30:12.477Z,76.97
2019-04-10T08:32:53.344Z,78.10
2019-04-10T08:35:15.511Z,73.67
2019-04-10T08:37:46.167Z,67.53
2019-04-10T08:40:19.024Z,67.53
2019-04-10T08:42:49.757Z,63.50
2019-04-10T08:45:21.024Z,73.83
2019-04-10T08:47:52.869Z,73.30
2019-04-10T08:50:23.478Z,66.17
2019-04-10T08:52:54.033Z,73.53
2019-04-10T08:55:24.560Z,67.67
2019-04-10T08:57:55.122Z,70.17
2019-04-10T09:00:26.772Z,69.90
2019-04-10T09:02:58.166Z,61.23
2019-04-10T09:05:29.876Z,66.50
2019-04-10T09:08:00.737Z,64.33
2019-04-10T09:10:31.617Z,63.10
2019-04-10T09:13:02.257Z,65.97
2019-04-10T09:15:34.023Z,61.90
2019-04-10T09:18:06.006Z,63.23
2019-04-10T09:20:36.832Z,64.33
2019-04-10T09:23:20.035Z,64.03
2019-04-10T09:25:39.776Z,62.63
2019-04-10T09:28:10.623Z,62.63
2019-04-10T09:30:41.278Z,58.37
2019-04-10T09:33:19.930Z,69.17
2019-04-10T09:35:45.205Z,61.20
2019-04-10T09:38:16.748Z,65.03
2019-04-10T09:40:48.724Z,62.47
2019-04-10T09:43:19.492Z,60.87
2019-04-10T09:45:50.134Z,58.60
2019-04-10T09:48:22.249Z,66.43
2019-04-10T09:50:52.959Z,65.93
2019-04-10T09:53:24.554Z,66.80
2019-04-10T09:55:55.249Z,70.73
2019-04-10T09:58:26.199Z,66.70
2019-04-10T10:00:58.304Z,65.67
2019-04-10T10:03:30.124Z,66.13
2019-04-10T10:06:01.781Z,64.13
2019-04-10T10:08:33.896Z,57.30
2019-04-10T10:11:06.048Z,57.10
2019-04-10T10:13:39.306Z,61.83
2019-04-10T10:16:10.530Z,62.77
2019-04-10T10:18:41.560Z,61.80
2019-04-10T10:21:12.426Z,60.07
2019-04-10T10:23:43.583Z,64.07
2019-04-10T10:26:15.286Z,62.10
2019-04-10T10:28:47.077Z,57.90
2019-04-10T10:31:17.689Z,57.97
2019-04-10T10:33:48.273Z,63.47
2019-04-10T10:36:20.004Z,58.47
2019-04-10T10:39:02.137Z,61.70
2019-04-10T10:41:22.965Z,59.00
2019-04-10T10:43:53.620Z,62.73
2019-04-10T10:46:25.177Z,62.57
2019-04-10T10:48:56.941Z,56.83
2019-04-10T10:51:28.814Z,53.33
2019-04-10T10:54:02.345Z,57.07
2019-04-10T10:56:31.886Z,51.87
2019-04-10T10:59:02.962Z,55.20
2019-04-10T11:01:33.758Z,55.00
2019-04-10T11:04:04.755Z,51.97
2019-04-10T11:06:48.945Z,57.77
2019-04-10T11:09:12.598Z,53.67
2019-04-10T11:11:43.246Z,52.83
2019-04-10T11:14:15.058Z,64.13
2019-04-10T11:16:45.683Z,55.77
2019-04-10T11:19:17.301Z,53.53
2019-04-10T11:21:49.518Z,56.60
2019-04-10T11:24:20.394Z,54.17
2019-04-10T11:26:51.950Z,58.33
2019-04-10T11:29:22.681Z,50.70
2019-04-10T11:31:53.731Z,54.90
2019-04-10T11:34:24.582Z,52.97
2019-04-10T11:37:14.164Z,55.03
2019-04-10T11:39:29.293Z,54.13
2019-04-10T11:41:59.724Z,58.17
2019-04-10T11:44:30.273Z,62.17
2019-04-10T11:47:02.546Z,52.87
2019-04-10T11:49:33.986Z,54.00
2019-04-10T11:52:06.273Z,59.97
2019-04-10T11:54:40.951Z,55.87
2019-04-10T11:57:10.087Z,58.27
2019-04-10T11:59:41.270Z,53.20
2019-04-10T12:02:12.169Z,55.83
2019-04-10T12:04:53.141Z,58.03
2019-04-10T12:07:53.074Z,64.67
2019-04-10T12:12:21.683Z,55.67
2019-04-10T12:14:52.377Z,59.00
2019-04-10T12:17:23.878Z,53.63
2019-04-10T12:19:54.445Z,57.40
2019-04-10T12:22:25.044Z,53.53
2019-04-10T12:24:56.425Z,52.07
2019-04-10T12:27:27.320Z,50.80
2019-04-10T12:29:59.216Z,59.47
2019-04-10T12:32:30.477Z,56.37
2019-04-10T12:35:01.115Z,52.87
2019-04-10T12:37:32.804Z,58.23
2019-04-10T12:40:04.157Z,56.13
2019-04-10T12:42:34.834Z,56.47
2019-04-10T12:45:06.457Z,57.37
2019-04-10T12:47:37.743Z,57.90
2019-04-10T12:50:08.512Z,55.40
2019-04-10T12:52:39.029Z,54.77
2019-04-10T12:55:10.189Z,53.83
2019-04-10T12:57:41.337Z,54.00
2019-04-10T13:00:16.024Z,59.83
2019-04-10T13:02:47.010Z,55.63
2019-04-10T13:05:18.848Z,52.40
2019-04-10T13:07:51.839Z,53.90
2019-04-10T13:10:23.193Z,58.10
2019-04-10T13:12:53.911Z,49.90
2019-04-10T13:15:25.505Z,48.83
2019-04-10T13:17:57.128Z,48.77
2019-04-10T13:20:29.455Z,52.77
2019-04-10T13:23:00.314Z,51.87
2019-04-10T13:25:30.968Z,53.83
2019-04-10T13:28:01.593Z,49.33
2019-04-10T13:30:44.144Z,50.30
2019-04-10T13:33:05.313Z,48.20
2019-04-10T13:35:35.935Z,48.93
2019-04-10T13:38:06.857Z,47.70
2019-04-10T13:40:39.462Z,46.47
2019-04-10T13:43:11.749Z,48.17
2019-04-10T13:45:43.741Z,46.73
2019-04-10T13:48:14.588Z,43.47
2019-04-10T13:50:45.265Z,55.53
2019-04-10T13:53:15.953Z,50.20
2019-04-10T13:55:48.615Z,48.20
2019-04-10T13:58:19.309Z,43.50
2019-04-10T14:00:52.097Z,51.83
2019-04-10T14:03:22.666Z,52.30
2019-04-10T14:05:53.321Z,49.90
2019-04-10T14:08:41.543Z,50.30
2019-04-10T14:10:57.439Z,51.70
2019-04-10T14:13:29.614Z,48.90
2019-04-10T14:16:00.255Z,48.33
2019-04-10T14:18:30.844Z,47.77
2019-04-10T14:21:03.314Z,50.57
2019-04-10T14:23:33.865Z,49.67
2019-04-10T14:26:45.918Z,50.70
2019-04-10T14:29:20.607Z,49.73
2019-04-10T14:31:56.963Z,51.50
2019-04-10T14:34:28.388Z,53.47
2019-04-10T14:36:59.081Z,46.63
2019-04-10T14:39:29.749Z,44.40
2019-04-10T14:42:00.457Z,41.50
2019-04-10T14:44:31.176Z,40.30
2019-04-10T14:47:02.297Z,45.77
2019-04-10T14:49:34.096Z,45.00
2019-04-10T14:52:05.172Z,42.37
2019-04-10T14:54:35.872Z,47.63
2019-04-10T14:57:06.587Z,46.20
2019-04-10T14:59:37.128Z,41.87
2019-04-10T15:02:10.962Z,41.00
2019-04-10T15:04:41.565Z,41.27
2019-04-10T15:07:12.349Z,46.17
2019-04-10T15:09:43.990Z,38.90
2019-04-10T15:12:14.618Z,37.27
2019-04-10T15:14:45.889Z,39.07
2019-04-10T15:17:16.859Z,42.00
2019-04-10T15:19:49.802Z,40.63
2019-04-10T15:22:20.084Z,40.77
2019-04-10T15:24:51.702Z,42.10
2019-04-10T15:27:22.637Z,39.90
2019-04-10T15:29:53.208Z,36.83
2019-04-10T15:32:23.789Z,37.17
2019-04-10T15:34:54.415Z,39.43
2019-04-10T15:37:26.183Z,39.40
2019-04-10T15:39:56.813Z,41.60
2019-04-10T15:42:28.006Z,36.47
2019-04-10T15:44:58.794Z,39.83
2019-04-10T15:47:31.864Z,40.60
2019-04-10T15:50:02.645Z,38.10
2019-04-10T15:52:33.417Z,36.03
2019-04-10T15:55:04.279Z,38.63
2019-04-10T15:57:46.925Z,35.00
2019-04-10T16:00:09.224Z,36.07
2019-04-10T16:02:40.603Z,33.53
2019-04-10T16:05:11.417Z,34.07
2019-04-10T16:07:42.484Z,37.37
2019-04-10T16:10:31.181Z,33.00
2019-04-10T16:13:03.936Z,35.13
2019-04-10T16:15:38.757Z,30.90
2019-04-10T16:18:13.592Z,32.87
2019-04-10T16:20:45.197Z,37.80
2019-04-10T16:23:19.183Z,31.40
2019-04-10T16:25:52.324Z,31.30
2019-04-10T16:28:23.144Z,32.30
2019-04-10T16:30:55.007Z,34.90
2019-04-10T16:33:27.366Z,34.27
2019-04-10T16:35:59.031Z,33.77
2019-04-10T16:38:31.070Z,32.77
2019-04-10T16:41:02.703Z,43.73
2019-04-10T16:43:34.472Z,36.20
2019-04-10T16:46:05.062Z,42.10
2019-04-10T16:48:35.893Z,35.57
2019-04-10T16:51:06.545Z,41.37
2019-04-10T16:53:38.045Z,37.77
2019-04-10T16:56:09.830Z,39.47
2019-04-10T16:58:41.592Z,40.70
2019-04-10T17:01:14.638Z,44.80
2019-04-10T17:03:46.270Z,42.40
2019-04-10T17:06:17.825Z,41.17
2019-04-10T17:08:48.509Z,44.47
2019-04-10T17:11:19.389Z,59.80
2019-04-10T17:13:51.027Z,46.93
2019-04-10T17:16:21.887Z,41.27
2019-04-10T17:18:52.774Z,45.03
2019-04-10T17:21:25.057Z,44.37
2019-04-10T17:23:56.703Z,44.07
2019-04-10T17:26:27.705Z,52.63
2019-04-10T17:28:58.852Z,38.17
2019-04-10T17:31:30.809Z,40.20
2019-04-10T17:34:02.750Z,41.77
2019-04-10T17:36:36.878Z,41.43
2019-04-10T17:39:13.359Z,46.03
2019-04-10T17:41:45.926Z,43.07
2019-04-10T17:44:17.968Z,42.23
2019-04-10T17:46:49.234Z,44.33
2019-04-10T17:49:20.186Z,46.53
2019-04-10T17:51:52.265Z,44.30
2019-04-10T17:54:24.945Z,40.60
2019-04-10T17:56:56.919Z,41.97
2019-04-10T17:59:28.037Z,38.00
2019-04-10T18:02:01.171Z,37.33
2019-04-10T18:04:33.856Z,38.23
2019-04-10T18:07:04.558Z,41.23
2019-04-10T18:09:36.742Z,54.50
2019-04-10T18:12:08.525Z,43.73
2019-04-10T18:14:40.933Z,38.83
2019-04-10T18:17:11.528Z,41.63
2019-04-10T18:19:44.051Z,40.03
2019-04-10T18:22:14.844Z,39.73
2019-04-10T18:24:45.637Z,43.60
2019-04-10T18:27:16.425Z,43.60
2019-04-10T18:29:47.906Z,43.67
2019-04-10T18:32:18.518Z,39.67
2019-04-10T18:34:50.015Z,43.57
2019-04-10T18:37:23.725Z,37.20
2019-04-10T18:39:53.401Z,41.10
2019-04-10T18:42:24.401Z,40.63
2019-04-10T18:44:55.529Z,38.50
2019-04-10T18:47:39.151Z,39.40
2019-04-10T18:50:12.030Z,36.17
2019-04-10T18:52:43.510Z,39.50
2019-04-10T18:55:14.585Z,41.17
2019-04-10T18:57:45.284Z,39.83
2019-04-10T19:00:34.496Z,39.17
2019-04-10T19:03:23.528Z,36.00
2019-04-10T19:05:58.372Z,41.70
2019-04-10T19:08:29.869Z,45.37
2019-04-10T19:11:10.565Z,42.40
2019-04-10T19:13:35.153Z,45.17
2019-04-10T19:16:05.785Z,45.27
2019-04-10T19:18:37.522Z,53.10
2019-04-10T19:21:08.297Z,47.27
2019-04-10T19:23:41.342Z,41.63
2019-04-10T19:26:13.912Z,44.67
2019-04-10T19:28:46.459Z,43.70
2019-04-10T19:31:20.032Z,49.23
2019-04-10T19:33:49.898Z,55.33
2019-04-10T19:36:25.858Z,55.07
2019-04-10T19:38:56.460Z,65.70
2019-04-10T19:41:32.868Z,61.27
2019-04-10T19:43:59.460Z,60.63
2019-04-10T19:46:42.194Z,59.87
2019-04-10T19:49:14.195Z,53.80
2019-04-10T19:51:48.740Z,63.67
2019-04-10T19:54:19.771Z,48.13
2019-04-10T19:56:50.967Z,46.53
2019-04-10T19:59:22.809Z,35.30
2019-04-10T20:01:54.709Z,47.37
2019-04-10T20:04:26.288Z,47.47
2019-04-10T20:06:58.122Z,47.13
2019-04-10T20:09:28.764Z,38.80
2019-04-10T20:12:00.207Z,45.10
2019-04-10T20:14:30.821Z,41.83
2019-04-10T20:17:01.740Z,43.80
2019-04-10T20:19:32.791Z,44.23
2019-04-10T20:22:04.117Z,43.00
2019-04-10T20:24:34.849Z,45.73
2019-04-10T20:27:09.837Z,41.93
2019-04-10T20:29:41.385Z,40.90
2019-04-10T20:32:12.693Z,38.80
2019-04-10T20:34:43.514Z,39.97
2019-04-10T20:37:14.485Z,31.50
2019-04-10T20:39:45.523Z,35.60
2019-04-10T20:42:16.265Z,31.77
2019-04-10T20:44:49.079Z,30.07
2019-04-10T20:47:19.831Z,27.97
2019-04-10T20:49:51.443Z,29.10
2019-04-10T20:52:23.194Z,29.00
2019-04-10T20:54:55.174Z,25.60
2019-04-10T20:57:26.091Z,27.03
2019-04-10T20:59:57.366Z,25.00
2019-04-10T21:02:28.512Z,27.23
2019-04-10T21:05:03.149Z,29.67
2019-04-10T21:07:31.911Z,29.90
2019-04-10T21:10:02.649Z,23.47
2019-04-10T21:12:34.305Z,23.60
2019-04-10T21:15:06.655Z,22.00
2019-04-10T21:17:37.523Z,26.30
2019-04-10T21:20:08.228Z,23.43
2019-04-10T21:22:38.825Z,24.50
2019-04-10T21:25:10.313Z,21.70
2019-04-10T21:27:41.057Z,23.13
2019-04-10T21:30:24.258Z,27.40
2019-04-10T21:33:10.789Z,23.30
2019-04-10T21:35:41.602Z,23.97
2019-04-10T21:38:13.124Z,21.10
2019-04-10T21:40:43.852Z,23.77
2019-04-10T21:43:16.388Z,25.10
2019-04-10T21:45:47.573Z,19.77
2019-04-10T21:48:18.891Z,29.80
2019-04-10T21:50:49.718Z,33.30
2019-04-10T21:53:20.358Z,21.50
2019-04-10T21:55:51.428Z,22.20
2019-04-10T21:58:22.210Z,23.73
2019-04-10T22:01:04.024Z,21.80
2019-04-10T22:03:35.840Z,26.97
2019-04-10T22:06:32.047Z,25.23
2019-04-10T22:09:22.923Z,26.20
2019-04-10T22:11:55.309Z,24.80
2019-04-10T22:14:26.196Z,23.23
2019-04-10T22:16:57.889Z,21.50
2019-04-10T22:19:29.024Z,21.73
2019-04-10T22:21:59.626Z,20.47
2019-04-10T22:24:31.907Z,21.10
2019-04-10T22:27:03.054Z,26.63
2019-04-10T22:29:34.740Z,24.90
2019-04-10T22:32:06.400Z,25.47
2019-04-10T22:34:37.065Z,24.33
2019-04-10T22:37:07.569Z,21.20
2019-04-10T22:39:38.120Z,21.90
2019-04-10T22:42:08.774Z,21.30
2019-04-10T22:44:43.795Z,24.27
2019-04-10T22:47:11.520Z,19.63
2019-04-10T22:49:43.118Z,23.33
2019-04-10T22:52:13.644Z,20.67
2019-04-10T22:54:44.396Z,26.80
2019-04-10T22:57:15.037Z,24.77
2019-04-10T22:59:46.691Z,22.33
2019-04-10T23:02:17.428Z,18.50
2019-04-10T23:04:48.116Z,19.17
2019-04-10T23:07:19.694Z,22.70
2019-04-10T23:09:50.723Z,23.57
2019-04-10T23:12:22.299Z,19.77
2019-04-10T23:14:53.226Z,24.13
2019-04-10T23:17:24.360Z,20.00
2019-04-10T23:19:54.992Z,21.20
2019-04-10T23:22:25.576Z,18.87
2019-04-10T23:24:56.117Z,21.37
2019-04-10T23:27:26.799Z,18.67
2019-04-10T23:29:57.720Z,19.47
2019-04-10T23:32:29.079Z,21.60
2019-04-10T23:34:59.698Z,21.37
2019-04-10T23:37:30.974Z,19.43
2019-04-10T23:40:03.034Z,22.90
2019-04-10T23:42:33.689Z,17.57
2019-04-10T23:45:05.162Z,19.90
2019-04-10T23:47:36.013Z,18.87
2019-04-10T23:50:06.702Z,18.77
2019-04-10T23:52:38.099Z,20.60
2019-04-10T23:55:10.136Z,22.07
2019-04-10T23:57:41.193Z,18.30
